sensor_id;sensor_type;location;lat;lon;timestamp;pressure;altitude;pressure_sealevel;temperature;humidity
11172;BME280;5642;50.830;12.082;2022-07-09T00:00:52;100486.06;;;19.01;42.92
11172;BME280;5642;50.830;12.082;2022-07-09T00:03:18;100492.25;;;19.01;42.94
11172;BME280;5642;50.830;12.082;2022-07-09T00:05:44;100457.00;;;18.81;42.94
11172;BME280;5642;50.830;12.082;2022-07-09T00:08:10;100481.88;;;18.97;43.05
11172;BME280;5642;50.830;12.082;2022-07-09T00:10:36;100489.03;;;18.95;42.82
11172;BME280;5642;50.830;12.082;2022-07-09T00:13:02;100486.44;;;18.93;42.93
11172;BME280;5642;50.830;12.082;2022-07-09T00:15:28;100474.47;;;18.85;43.01
11172;BME280;5642;50.830;12.082;2022-07-09T00:17:54;100480.56;;;18.87;42.93
11172;BME280;5642;50.830;12.082;2022-07-09T00:20:20;100483.47;;;18.82;43.03
11172;BME280;5642;50.830;12.082;2022-07-09T00:22:47;100483.59;;;18.79;42.98
11172;BME280;5642;50.830;12.082;2022-07-09T00:25:13;100480.25;;;18.75;43.03
11172;BME280;5642;50.830;12.082;2022-07-09T00:27:39;100483.09;;;18.71;43.07
11172;BME280;5642;50.830;12.082;2022-07-09T00:30:05;100470.94;;;18.67;43.05
11172;BME280;5642;50.830;12.082;2022-07-09T00:32:32;100472.91;;;18.62;43.05
11172;BME280;5642;50.830;12.082;2022-07-09T00:34:58;100474.13;;;18.55;43.14
11172;BME280;5642;50.830;12.082;2022-07-09T00:37:24;100467.13;;;18.54;43.20
11172;BME280;5642;50.830;12.082;2022-07-09T00:39:50;100465.44;;;18.51;43.17
11172;BME280;5642;50.830;12.082;2022-07-09T00:42:16;100466.59;;;18.46;43.29
11172;BME280;5642;50.830;12.082;2022-07-09T00:44:42;100463.22;;;18.42;43.30
11172;BME280;5642;50.830;12.082;2022-07-09T00:47:08;100455.00;;;18.29;43.20
11172;BME280;5642;50.830;12.082;2022-07-09T00:49:41;100460.94;;;18.34;43.29
11172;BME280;5642;50.830;12.082;2022-07-09T00:52:10;100436.25;;;18.14;43.34
11172;BME280;5642;50.830;12.082;2022-07-09T00:54:37;100463.16;;;18.25;43.41
11172;BME280;5642;50.830;12.082;2022-07-09T00:57:06;100463.34;;;18.20;43.40
11172;BME280;5642;50.830;12.082;2022-07-09T00:59:34;100467.09;;;18.16;43.56
11172;BME280;5642;50.830;12.082;2022-07-09T01:02:01;100458.56;;;18.10;43.47
11172;BME280;5642;50.830;12.082;2022-07-09T01:04:28;100461.34;;;18.07;43.46
11172;BME280;5642;50.830;12.082;2022-07-09T01:06:54;100459.78;;;18.03;43.49
11172;BME280;5642;50.830;12.082;2022-07-09T01:16:34;100443.38;;;17.74;43.73
11172;BME280;5642;50.830;12.082;2022-07-09T01:19:00;100443.31;;;17.76;43.83
11172;BME280;5642;50.830;12.082;2022-07-09T01:21:27;100441.59;;;17.75;43.83
11172;BME280;5642;50.830;12.082;2022-07-09T01:23:53;100429.28;;;17.74;43.65
11172;BME280;5642;50.830;12.082;2022-07-09T01:26:19;100429.34;;;17.72;43.65
11172;BME280;5642;50.830;12.082;2022-07-09T01:28:46;100426.69;;;17.72;43.69
11172;BME280;5642;50.830;12.082;2022-07-09T01:31:13;100427.66;;;17.70;43.89
11172;BME280;5642;50.830;12.082;2022-07-09T01:33:39;100424.25;;;17.68;43.79
11172;BME280;5642;50.830;12.082;2022-07-09T01:36:06;100427.81;;;17.67;43.81
11172;BME280;5642;50.830;12.082;2022-07-09T01:38:33;100418.09;;;17.67;43.83
11172;BME280;5642;50.830;12.082;2022-07-09T01:40:59;100422.59;;;17.65;43.92
11172;BME280;5642;50.830;12.082;2022-07-09T01:43:25;100419.13;;;17.63;43.96
11172;BME280;5642;50.830;12.082;2022-07-09T01:45:51;100412.06;;;17.64;43.99
11172;BME280;5642;50.830;12.082;2022-07-09T01:48:17;100410.31;;;17.63;43.98
11172;BME280;5642;50.830;12.082;2022-07-09T01:50:43;100408.66;;;17.60;44.01
11172;BME280;5642;50.830;12.082;2022-07-09T01:53:10;100394.44;;;17.63;44.09
11172;BME280;5642;50.830;12.082;2022-07-09T01:55:36;100400.25;;;17.71;44.18
11172;BME280;5642;50.830;12.082;2022-07-09T01:58:02;100395.75;;;17.73;44.30
11172;BME280;5642;50.830;12.082;2022-07-09T02:00:28;100399.09;;;17.76;44.21
11172;BME280;5642;50.830;12.082;2022-07-09T02:02:55;100395.41;;;17.80;44.29
11172;BME280;5642;50.830;12.082;2022-07-09T02:05:22;100376.84;;;17.80;44.28
11172;BME280;5642;50.830;12.082;2022-07-09T02:07:49;100387.16;;;17.86;44.20
11172;BME280;5642;50.830;12.082;2022-07-09T02:10:15;100383.53;;;17.89;44.30
11172;BME280;5642;50.830;12.082;2022-07-09T02:12:42;100381.66;;;17.91;44.41
11172;BME280;5642;50.830;12.082;2022-07-09T02:15:08;100378.06;;;17.92;44.35
11172;BME280;5642;50.830;12.082;2022-07-09T02:17:36;100385.16;;;17.91;44.39
11172;BME280;5642;50.830;12.082;2022-07-09T02:20:03;100380.78;;;17.90;44.23
11172;BME280;5642;50.830;12.082;2022-07-09T02:22:29;100377.31;;;17.90;44.38
11172;BME280;5642;50.830;12.082;2022-07-09T02:24:56;100375.63;;;17.87;44.47
11172;BME280;5642;50.830;12.082;2022-07-09T02:27:22;100363.44;;;17.83;44.37
11172;BME280;5642;50.830;12.082;2022-07-09T02:29:49;100374.78;;;17.87;44.31
11172;BME280;5642;50.830;12.082;2022-07-09T02:32:15;100369.34;;;17.90;44.73
11172;BME280;5642;50.830;12.082;2022-07-09T02:34:42;100366.75;;;17.88;44.74
11172;BME280;5642;50.830;12.082;2022-07-09T02:37:08;100345.19;;;17.77;44.68
11172;BME280;5642;50.830;12.082;2022-07-09T02:39:34;100376.91;;;17.97;44.69
11172;BME280;5642;50.830;12.082;2022-07-09T02:42:00;100366.41;;;17.96;44.60
11172;BME280;5642;50.830;12.082;2022-07-09T02:44:26;100374.19;;;17.99;44.68
11172;BME280;5642;50.830;12.082;2022-07-09T02:46:53;100365.75;;;17.91;44.60
11172;BME280;5642;50.830;12.082;2022-07-09T02:49:19;100375.28;;;17.95;44.60
11172;BME280;5642;50.830;12.082;2022-07-09T02:51:46;100371.84;;;17.93;44.66
11172;BME280;5642;50.830;12.082;2022-07-09T02:54:13;100370.13;;;17.92;44.65
11172;BME280;5642;50.830;12.082;2022-07-09T02:56:38;100384.28;;;17.91;44.78
11172;BME280;5642;50.830;12.082;2022-07-09T02:59:04;100379.94;;;17.90;44.82
11172;BME280;5642;50.830;12.082;2022-07-09T03:01:31;100379.00;;;17.91;44.81
11172;BME280;5642;50.830;12.082;2022-07-09T03:03:57;100384.22;;;17.92;44.88
11172;BME280;5642;50.830;12.082;2022-07-09T03:06:23;100389.53;;;17.92;44.87
11172;BME280;5642;50.830;12.082;2022-07-09T03:08:49;100385.03;;;17.94;45.01
11172;BME280;5642;50.830;12.082;2022-07-09T03:11:15;100373.78;;;17.89;45.00
11172;BME280;5642;50.830;12.082;2022-07-09T03:13:41;100384.22;;;17.92;45.20
11172;BME280;5642;50.830;12.082;2022-07-09T03:16:07;100386.75;;;17.95;45.15
11172;BME280;5642;50.830;12.082;2022-07-09T03:18:33;100391.13;;;17.96;45.41
11172;BME280;5642;50.830;12.082;2022-07-09T03:20:59;100386.53;;;18.00;45.40
11172;BME280;5642;50.830;12.082;2022-07-09T03:23:25;100375.88;;;18.02;45.42
11172;BME280;5642;50.830;12.082;2022-07-09T03:25:51;100382.66;;;18.07;45.39
11172;BME280;5642;50.830;12.082;2022-07-09T03:28:18;100383.81;;;18.20;45.37
11172;BME280;5642;50.830;12.082;2022-07-09T03:30:44;100381.81;;;18.25;45.43
11172;BME280;5642;50.830;12.082;2022-07-09T03:33:10;100388.69;;;18.29;45.48
11172;BME280;5642;50.830;12.082;2022-07-09T03:35:36;100379.78;;;18.30;45.41
11172;BME280;5642;50.830;12.082;2022-07-09T03:38:02;100376.91;;;18.35;45.36
11172;BME280;5642;50.830;12.082;2022-07-09T03:40:28;100376.84;;;18.36;45.30
11172;BME280;5642;50.830;12.082;2022-07-09T03:42:54;100383.00;;;18.37;45.22
11172;BME280;5642;50.830;12.082;2022-07-09T03:45:20;100369.75;;;18.37;45.23
11172;BME280;5642;50.830;12.082;2022-07-09T03:47:47;100376.84;;;18.36;45.14
11172;BME280;5642;50.830;12.082;2022-07-09T03:50:14;100372.81;;;18.28;45.16
11172;BME280;5642;50.830;12.082;2022-07-09T03:52:40;100379.94;;;18.27;45.14
11172;BME280;5642;50.830;12.082;2022-07-09T03:55:06;100388.19;;;18.21;45.12
11172;BME280;5642;50.830;12.082;2022-07-09T03:57:32;100374.56;;;18.10;45.21
11172;BME280;5642;50.830;12.082;2022-07-09T03:59:58;100383.53;;;18.08;45.25
11172;BME280;5642;50.830;12.082;2022-07-09T04:02:25;100372.56;;;17.96;45.30
11172;BME280;5642;50.830;12.082;2022-07-09T04:04:51;100388.88;;;18.06;45.56
11172;BME280;5642;50.830;12.082;2022-07-09T04:07:17;100386.09;;;18.09;45.62
11172;BME280;5642;50.830;12.082;2022-07-09T04:09:43;100378.78;;;18.14;45.70
11172;BME280;5642;50.830;12.082;2022-07-09T04:12:08;100377.56;;;18.21;45.86
11172;BME280;5642;50.830;12.082;2022-07-09T04:14:35;100385.88;;;18.32;45.88
11172;BME280;5642;50.830;12.082;2022-07-09T04:17:01;100377.41;;;18.43;45.99
11172;BME280;5642;50.830;12.082;2022-07-09T04:19:27;100375.91;;;18.56;46.15
11172;BME280;5642;50.830;12.082;2022-07-09T04:21:56;100379.66;;;18.69;46.33
11172;BME280;5642;50.830;12.082;2022-07-09T04:24:22;100379.94;;;18.82;46.55
11172;BME280;5642;50.830;12.082;2022-07-09T04:26:49;100376.66;;;18.94;46.65
11172;BME280;5642;50.830;12.082;2022-07-09T04:29:14;100377.69;;;19.09;46.57
11172;BME280;5642;50.830;12.082;2022-07-09T04:31:41;100372.59;;;19.22;46.36
11172;BME280;5642;50.830;12.082;2022-07-09T04:34:07;100379.91;;;19.34;46.63
11172;BME280;5642;50.830;12.082;2022-07-09T04:36:32;100370.47;;;19.45;46.57
11172;BME280;5642;50.830;12.082;2022-07-09T04:38:58;100367.97;;;19.60;46.38
11172;BME280;5642;50.830;12.082;2022-07-09T04:41:24;100361.97;;;19.72;46.47
11172;BME280;5642;50.830;12.082;2022-07-09T04:43:50;100366.28;;;19.90;46.87
11172;BME280;5642;50.830;12.082;2022-07-09T04:46:16;100372.31;;;20.09;47.13
11172;BME280;5642;50.830;12.082;2022-07-09T04:48:42;100368.31;;;20.33;47.63
11172;BME280;5642;50.830;12.082;2022-07-09T04:51:08;100371.19;;;20.60;48.12
11172;BME280;5642;50.830;12.082;2022-07-09T04:53:34;100364.88;;;20.93;48.55
11172;BME280;5642;50.830;12.082;2022-07-09T04:56:00;100375.16;;;21.29;48.76
11172;BME280;5642;50.830;12.082;2022-07-09T04:58:26;100371.78;;;21.69;48.77
11172;BME280;5642;50.830;12.082;2022-07-09T05:00:54;100367.50;;;22.09;48.66
11172;BME280;5642;50.830;12.082;2022-07-09T05:03:20;100366.19;;;22.43;48.46
11172;BME280;5642;50.830;12.082;2022-07-09T05:05:46;100369.59;;;22.72;48.17
11172;BME280;5642;50.830;12.082;2022-07-09T05:08:12;100367.00;;;22.97;47.66
11172;BME280;5642;50.830;12.082;2022-07-09T05:10:38;100364.69;;;23.18;47.24
11172;BME280;5642;50.830;12.082;2022-07-09T05:13:05;100368.22;;;23.31;46.79
11172;BME280;5642;50.830;12.082;2022-07-09T05:15:31;100365.03;;;23.39;46.20
11172;BME280;5642;50.830;12.082;2022-07-09T05:17:58;100362.78;;;23.46;46.22
11172;BME280;5642;50.830;12.082;2022-07-09T05:20:24;100362.19;;;23.55;46.28
11172;BME280;5642;50.830;12.082;2022-07-09T05:22:50;100363.38;;;23.63;45.75
11172;BME280;5642;50.830;12.082;2022-07-09T05:25:16;100365.41;;;23.72;45.62
11172;BME280;5642;50.830;12.082;2022-07-09T05:27:46;100358.66;;;23.79;45.60
11172;BME280;5642;50.830;12.082;2022-07-09T05:30:13;100366.69;;;23.79;45.39
11172;BME280;5642;50.830;12.082;2022-07-09T05:32:41;100361.72;;;23.73;45.24
11172;BME280;5642;50.830;12.082;2022-07-09T05:35:08;100364.97;;;23.66;45.07
11172;BME280;5642;50.830;12.082;2022-07-09T05:37:40;100366.13;;;23.62;45.02
11172;BME280;5642;50.830;12.082;2022-07-09T05:40:06;100368.38;;;23.55;44.86
11172;BME280;5642;50.830;12.082;2022-07-09T05:42:32;100365.19;;;23.50;44.77
11172;BME280;5642;50.830;12.082;2022-07-09T05:44:59;100366.31;;;23.46;44.83
11172;BME280;5642;50.830;12.082;2022-07-09T05:47:25;100365.25;;;23.36;44.83
11172;BME280;5642;50.830;12.082;2022-07-09T05:49:51;100367.38;;;23.31;44.75
11172;BME280;5642;50.830;12.082;2022-07-09T05:52:17;100364.19;;;23.26;44.73
11172;BME280;5642;50.830;12.082;2022-07-09T05:54:43;100360.88;;;23.22;44.83
11172;BME280;5642;50.830;12.082;2022-07-09T05:57:10;100367.59;;;23.15;44.58
11172;BME280;5642;50.830;12.082;2022-07-09T05:59:35;100375.81;;;23.12;44.71
11172;BME280;5642;50.830;12.082;2022-07-09T06:02:01;100364.50;;;23.09;44.90
11172;BME280;5642;50.830;12.082;2022-07-09T06:04:29;100370.78;;;23.08;44.76
11172;BME280;5642;50.830;12.082;2022-07-09T06:06:55;100363.81;;;23.05;44.77
11172;BME280;5642;50.830;12.082;2022-07-09T06:09:21;100362.00;;;23.06;44.59
11172;BME280;5642;50.830;12.082;2022-07-09T06:11:48;100371.66;;;23.08;44.79
11172;BME280;5642;50.830;12.082;2022-07-09T06:14:14;100367.03;;;23.10;44.87
11172;BME280;5642;50.830;12.082;2022-07-09T06:16:40;100368.47;;;23.16;44.73
11172;BME280;5642;50.830;12.082;2022-07-09T06:19:07;100368.22;;;23.19;44.72
11172;BME280;5642;50.830;12.082;2022-07-09T06:21:33;100361.16;;;23.18;44.93
11172;BME280;5642;50.830;12.082;2022-07-09T06:23:58;100347.28;;;23.13;44.82
11172;BME280;5642;50.830;12.082;2022-07-09T06:26:25;100351.75;;;23.12;44.83
11172;BME280;5642;50.830;12.082;2022-07-09T06:28:51;100354.63;;;23.09;44.92
11172;BME280;5642;50.830;12.082;2022-07-09T06:31:16;100352.94;;;23.08;44.79
11172;BME280;5642;50.830;12.082;2022-07-09T06:33:42;100358.38;;;23.07;44.82
11172;BME280;5642;50.830;12.082;2022-07-09T06:36:08;100356.75;;;23.04;44.81
11172;BME280;5642;50.830;12.082;2022-07-09T06:38:35;100362.63;;;23.09;44.77
11172;BME280;5642;50.830;12.082;2022-07-09T06:41:20;100364.03;;;23.02;44.91
11172;BME280;5642;50.830;12.082;2022-07-09T06:43:47;100364.34;;;22.97;44.77
11172;BME280;5642;50.830;12.082;2022-07-09T06:46:13;100362.00;;;22.93;44.98
11172;BME280;5642;50.830;12.082;2022-07-09T06:48:38;100352.34;;;22.90;45.10
11172;BME280;5642;50.830;12.082;2022-07-09T06:51:05;100352.34;;;22.90;44.98
11172;BME280;5642;50.830;12.082;2022-07-09T06:53:33;100364.56;;;22.94;45.12
11172;BME280;5642;50.830;12.082;2022-07-09T06:55:59;100356.56;;;22.94;45.17
11172;BME280;5642;50.830;12.082;2022-07-09T06:58:25;100359.22;;;22.94;45.19
11172;BME280;5642;50.830;12.082;2022-07-09T07:00:51;100362.00;;;22.93;45.21
11172;BME280;5642;50.830;12.082;2022-07-09T07:03:17;100354.63;;;22.96;45.25
11172;BME280;5642;50.830;12.082;2022-07-09T07:05:43;100350.13;;;22.97;45.20
11172;BME280;5642;50.830;12.082;2022-07-09T07:08:10;100346.41;;;22.99;45.31
11172;BME280;5642;50.830;12.082;2022-07-09T07:10:35;100334.00;;;22.98;45.41
11172;BME280;5642;50.830;12.082;2022-07-09T07:13:01;100333.56;;;23.04;45.34
11172;BME280;5642;50.830;12.082;2022-07-09T07:15:28;100337.63;;;23.10;45.35
11172;BME280;5642;50.830;12.082;2022-07-09T07:17:54;100331.13;;;23.14;45.46
11172;BME280;5642;50.830;12.082;2022-07-09T07:20:20;100333.16;;;23.23;45.41
11172;BME280;5642;50.830;12.082;2022-07-09T07:22:48;100331.91;;;23.29;45.41
11172;BME280;5642;50.830;12.082;2022-07-09T07:25:14;100335.31;;;23.43;45.49
11172;BME280;5642;50.830;12.082;2022-07-09T07:27:40;100322.41;;;23.50;45.25
11172;BME280;5642;50.830;12.082;2022-07-09T07:30:07;100334.81;;;23.64;45.43
11172;BME280;5642;50.830;12.082;2022-07-09T07:32:33;100326.53;;;23.67;45.18
11172;BME280;5642;50.830;12.082;2022-07-09T07:34:59;100311.13;;;23.70;45.37
11172;BME280;5642;50.830;12.082;2022-07-09T07:37:25;100322.56;;;23.85;45.44
11172;BME280;5642;50.830;12.082;2022-07-09T07:39:53;100313.88;;;23.94;45.34
11172;BME280;5642;50.830;12.082;2022-07-09T07:42:20;100310.91;;;24.10;45.37
11172;BME280;5642;50.830;12.082;2022-07-09T07:44:46;100314.72;;;24.31;45.64
11172;BME280;5642;50.830;12.082;2022-07-09T07:47:13;100305.44;;;24.48;45.65
11172;BME280;5642;50.830;12.082;2022-07-09T07:49:42;100301.94;;;24.58;45.40
11172;BME280;5642;50.830;12.082;2022-07-09T07:52:08;100302.88;;;24.70;45.06
11172;BME280;5642;50.830;12.082;2022-07-09T07:54:34;100309.56;;;24.76;45.37
11172;BME280;5642;50.830;12.082;2022-07-09T07:57:01;100302.78;;;24.83;44.77
11172;BME280;5642;50.830;12.082;2022-07-09T07:59:27;100302.31;;;24.89;45.22
11172;BME280;5642;50.830;12.082;2022-07-09T08:01:53;100302.97;;;24.92;44.81
11172;BME280;5642;50.830;12.082;2022-07-09T08:04:20;100311.88;;;24.93;45.12
11172;BME280;5642;50.830;12.082;2022-07-09T08:06:46;100310.16;;;24.92;45.03
11172;BME280;5642;50.830;12.082;2022-07-09T08:09:12;100313.44;;;24.95;44.71
11172;BME280;5642;50.830;12.082;2022-07-09T08:11:38;100314.41;;;24.94;44.61
11172;BME280;5642;50.830;12.082;2022-07-09T08:14:04;100317.09;;;24.94;44.57
11172;BME280;5642;50.830;12.082;2022-07-09T08:16:32;100310.16;;;24.92;44.87
11172;BME280;5642;50.830;12.082;2022-07-09T08:18:58;100313.56;;;24.94;44.42
11172;BME280;5642;50.830;12.082;2022-07-09T08:21:24;100306.16;;;24.98;44.42
11172;BME280;5642;50.830;12.082;2022-07-09T08:23:50;100303.34;;;24.99;44.35
11172;BME280;5642;50.830;12.082;2022-07-09T08:26:26;100306.75;;;25.01;44.36
11172;BME280;5642;50.830;12.082;2022-07-09T08:28:54;100311.50;;;24.98;44.80
11172;BME280;5642;50.830;12.082;2022-07-09T08:31:24;100293.78;;;24.84;44.45
11172;BME280;5642;50.830;12.082;2022-07-09T08:33:52;100302.66;;;24.84;44.49
11172;BME280;5642;50.830;12.082;2022-07-09T08:36:18;100299.81;;;24.75;44.72
11172;BME280;5642;50.830;12.082;2022-07-09T08:38:47;100297.13;;;24.64;44.79
11172;BME280;5642;50.830;12.082;2022-07-09T08:41:16;100290.84;;;24.52;44.67
11172;BME280;5642;50.830;12.082;2022-07-09T08:43:50;100290.69;;;24.42;44.49
11172;BME280;5642;50.830;12.082;2022-07-09T08:46:17;100290.53;;;24.33;44.42
11172;BME280;5642;50.830;12.082;2022-07-09T08:48:44;100282.50;;;24.33;44.85
11172;BME280;5642;50.830;12.082;2022-07-09T08:51:11;100280.31;;;24.38;44.63
11172;BME280;5642;50.830;12.082;2022-07-09T08:53:43;100280.78;;;24.55;44.96
11172;BME280;5642;50.830;12.082;2022-07-09T08:56:10;100275.25;;;24.81;44.81
11172;BME280;5642;50.830;12.082;2022-07-09T08:58:40;100284.38;;;25.13;44.64
11172;BME280;5642;50.830;12.082;2022-07-09T09:01:06;100283.06;;;25.41;44.58
11172;BME280;5642;50.830;12.082;2022-07-09T09:03:33;100273.06;;;25.54;44.53
11172;BME280;5642;50.830;12.082;2022-07-09T09:06:01;100275.38;;;25.59;44.43
11172;BME280;5642;50.830;12.082;2022-07-09T09:08:35;100284.41;;;25.58;44.38
11172;BME280;5642;50.830;12.082;2022-07-09T09:11:03;100288.66;;;25.49;44.63
11172;BME280;5642;50.830;12.082;2022-07-09T09:13:32;100277.31;;;25.34;44.57
11172;BME280;5642;50.830;12.082;2022-07-09T09:16:06;100289.25;;;25.19;44.84
11172;BME280;5642;50.830;12.082;2022-07-09T09:18:42;100291.06;;;25.08;44.52
11172;BME280;5642;50.830;12.082;2022-07-09T09:21:10;100290.16;;;24.96;44.85
11172;BME280;5642;50.830;12.082;2022-07-09T09:23:44;100290.97;;;24.85;45.00
11172;BME280;5642;50.830;12.082;2022-07-09T09:26:24;100300.94;;;24.72;45.08
11172;BME280;5642;50.830;12.082;2022-07-09T09:28:52;100293.69;;;24.62;45.02
11172;BME280;5642;50.830;12.082;2022-07-09T09:31:26;100291.84;;;24.51;44.98
11172;BME280;5642;50.830;12.082;2022-07-09T09:33:54;100296.38;;;24.38;45.08
11172;BME280;5642;50.830;12.082;2022-07-09T09:36:29;100295.47;;;24.26;45.03
11172;BME280;5642;50.830;12.082;2022-07-09T09:42:00;100295.75;;;23.98;45.61
11172;BME280;5642;50.830;12.082;2022-07-09T09:44:28;100292.03;;;23.88;45.90
11172;BME280;5642;50.830;12.082;2022-07-09T09:49:24;100292.94;;;23.75;45.62
11172;BME280;5642;50.830;12.082;2022-07-09T09:52:07;100294.03;;;23.73;45.82
11172;BME280;5642;50.830;12.082;2022-07-09T09:54:35;100294.69;;;23.64;45.83
11172;BME280;5642;50.830;12.082;2022-07-09T09:57:09;100296.38;;;23.52;45.89
11172;BME280;5642;50.830;12.082;2022-07-09T09:59:37;100287.38;;;23.40;46.09
11172;BME280;5642;50.830;12.082;2022-07-09T10:02:05;100285.91;;;23.36;45.71
11172;BME280;5642;50.830;12.082;2022-07-09T10:04:39;100288.03;;;23.31;46.05
11172;BME280;5642;50.830;12.082;2022-07-09T10:07:06;100288.69;;;23.22;46.01
11172;BME280;5642;50.830;12.082;2022-07-09T10:09:32;100293.50;;;23.17;46.04
11172;BME280;5642;50.830;12.082;2022-07-09T10:11:59;100299.78;;;23.16;46.01
11172;BME280;5642;50.830;12.082;2022-07-09T10:16:51;100288.69;;;23.22;46.22
11172;BME280;5642;50.830;12.082;2022-07-09T10:19:27;100285.88;;;23.24;46.31
11172;BME280;5642;50.830;12.082;2022-07-09T10:21:56;100287.84;;;23.22;46.51
11172;BME280;5642;50.830;12.082;2022-07-09T10:24:27;100288.47;;;23.25;46.56
11172;BME280;5642;50.830;12.082;2022-07-09T10:27:11;100281.97;;;23.29;46.44
11172;BME280;5642;50.830;12.082;2022-07-09T10:29:57;100282.59;;;23.33;46.52
11172;BME280;5642;50.830;12.082;2022-07-09T10:32:27;100284.31;;;23.34;46.36
11172;BME280;5642;50.830;12.082;2022-07-09T10:35:04;100273.59;;;23.34;46.33
11172;BME280;5642;50.830;12.082;2022-07-09T10:40:16;100281.53;;;23.23;46.60
11172;BME280;5642;50.830;12.082;2022-07-09T10:42:57;100281.22;;;23.15;46.68
11172;BME280;5642;50.830;12.082;2022-07-09T10:45:28;100276.81;;;23.14;46.62
11172;BME280;5642;50.830;12.082;2022-07-09T10:47:58;100274.16;;;23.14;46.85
11172;BME280;5642;50.830;12.082;2022-07-09T10:50:27;100262.50;;;23.15;46.85
11172;BME280;5642;50.830;12.082;2022-07-09T10:52:55;100263.88;;;23.20;46.77
11172;BME280;5642;50.830;12.082;2022-07-09T10:55:26;100266.53;;;23.33;46.84
11172;BME280;5642;50.830;12.082;2022-07-09T10:57:54;100258.13;;;23.52;46.74
11172;BME280;5642;50.830;12.082;2022-07-09T11:00:24;100254.31;;;23.79;47.02
11172;BME280;5642;50.830;12.082;2022-07-09T11:02:55;100258.78;;;24.15;47.11
11172;BME280;5642;50.830;12.082;2022-07-09T11:05:23;100253.25;;;24.53;47.14
11172;BME280;5642;50.830;12.082;2022-07-09T11:08:00;100253.63;;;24.95;46.79
11172;BME280;5642;50.830;12.082;2022-07-09T11:10:28;100244.41;;;25.32;46.58
11172;BME280;5642;50.830;12.082;2022-07-09T11:12:55;100241.38;;;25.70;46.69
11172;BME280;5642;50.830;12.082;2022-07-09T11:15:25;100242.72;;;26.08;46.52
11172;BME280;5642;50.830;12.082;2022-07-09T11:18:13;100236.13;;;26.55;46.45
11172;BME280;5642;50.830;12.082;2022-07-09T11:20:44;100235.91;;;26.88;46.44
11172;BME280;5642;50.830;12.082;2022-07-09T11:23:15;100229.47;;;27.21;46.57
11172;BME280;5642;50.830;12.082;2022-07-09T11:25:43;100221.72;;;27.58;46.28
11172;BME280;5642;50.830;12.082;2022-07-09T11:28:19;100225.19;;;27.89;46.08
11172;BME280;5642;50.830;12.082;2022-07-09T11:31:03;100221.09;;;28.04;45.85
11172;BME280;5642;50.830;12.082;2022-07-09T11:33:30;100224.22;;;28.10;45.79
11172;BME280;5642;50.830;12.082;2022-07-09T11:36:16;100222.94;;;28.14;45.87
11172;BME280;5642;50.830;12.082;2022-07-09T11:38:53;100223.13;;;28.22;45.67
11172;BME280;5642;50.830;12.082;2022-07-09T11:41:19;100220.28;;;28.23;45.77
11172;BME280;5642;50.830;12.082;2022-07-09T11:43:50;100220.28;;;28.23;45.46
11172;BME280;5642;50.830;12.082;2022-07-09T11:46:17;100220.03;;;28.26;45.19
11172;BME280;5642;50.830;12.082;2022-07-09T11:48:54;100213.47;;;28.29;45.49
11172;BME280;5642;50.830;12.082;2022-07-09T11:51:34;100220.00;;;28.36;45.20
11172;BME280;5642;50.830;12.082;2022-07-09T11:54:01;100210.38;;;28.33;45.13
11172;BME280;5642;50.830;12.082;2022-07-09T11:56:27;100222.16;;;28.32;44.93
11172;BME280;5642;50.830;12.082;2022-07-09T11:58:53;100204.72;;;28.27;44.63
11172;BME280;5642;50.830;12.082;2022-07-09T12:01:23;100196.75;;;28.16;44.79
11172;BME280;5642;50.830;12.082;2022-07-09T12:03:50;100190.91;;;28.01;44.55
11172;BME280;5642;50.830;12.082;2022-07-09T12:06:16;100188.34;;;27.90;44.41
11172;BME280;5642;50.830;12.082;2022-07-09T12:08:42;100184.78;;;27.70;44.71
11172;BME280;5642;50.830;12.082;2022-07-09T12:11:09;100177.38;;;27.53;44.63
11172;BME280;5642;50.830;12.082;2022-07-09T12:13:35;100181.97;;;27.41;44.61
11172;BME280;5642;50.830;12.082;2022-07-09T12:16:01;100170.75;;;27.26;44.55
11172;BME280;5642;50.830;12.082;2022-07-09T12:18:27;100171.66;;;27.06;44.64
11172;BME280;5642;50.830;12.082;2022-07-09T12:20:54;100179.22;;;26.92;44.62
11172;BME280;5642;50.830;12.082;2022-07-09T12:23:20;100177.84;;;26.76;44.64
11172;BME280;5642;50.830;12.082;2022-07-09T12:25:46;100176.91;;;26.66;44.88
11172;BME280;5642;50.830;12.082;2022-07-09T12:28:12;100178.09;;;26.52;44.91
11172;BME280;5642;50.830;12.082;2022-07-09T12:30:39;100171.53;;;26.45;44.73
11172;BME280;5642;50.830;12.082;2022-07-09T12:33:05;100173.78;;;26.40;44.78
11172;BME280;5642;50.830;12.082;2022-07-09T12:35:30;100159.63;;;26.38;44.78
11172;BME280;5642;50.830;12.082;2022-07-09T12:37:57;100169.38;;;26.39;44.76
11172;BME280;5642;50.830;12.082;2022-07-09T12:40:23;100157.91;;;26.37;44.73
11172;BME280;5642;50.830;12.082;2022-07-09T12:42:49;100156.06;;;26.38;44.71
11172;BME280;5642;50.830;12.082;2022-07-09T12:45:15;100150.06;;;26.45;44.51
11172;BME280;5642;50.830;12.082;2022-07-09T12:47:41;100145.84;;;26.52;44.53
11172;BME280;5642;50.830;12.082;2022-07-09T12:50:07;100133.59;;;26.60;44.63
11172;BME280;5642;50.830;12.082;2022-07-09T12:52:34;100141.66;;;26.60;44.32
11172;BME280;5642;50.830;12.082;2022-07-09T12:55:02;100144.88;;;26.54;44.17
11172;BME280;5642;50.830;12.082;2022-07-09T12:57:28;100131.44;;;26.54;44.04
11172;BME280;5642;50.830;12.082;2022-07-09T12:59:55;100141.22;;;26.55;44.08
11172;BME280;5642;50.830;12.082;2022-07-09T13:02:21;100133.28;;;26.53;44.35
11172;BME280;5642;50.830;12.082;2022-07-09T13:04:47;100127.38;;;26.59;44.07
11172;BME280;5642;50.830;12.082;2022-07-09T13:07:13;100125.16;;;26.64;44.29
11172;BME280;5642;50.830;12.082;2022-07-09T13:09:39;100128.84;;;26.73;44.27